sensor_id;sensor_type;location;lat;lon;timestamp;pressure;altitude;pressure_sealevel;temperature;humidity
58473;BME280;44775;51.564;5.460;2023-02-10T00:00:45;103279.63;;;0.58;100.00
58473;BME280;44775;51.564;5.460;2023-02-10T00:03:10;103272.84;;;0.49;100.00
58473;BME280;44775;51.564;5.460;2023-02-10T00:05:36;103277.19;;;0.50;100.00
58473;BME280;44775;51.564;5.460;2023-02-10T00:08:01;103280.88;;;0.44;100.00
58473;BME280;44775;51.564;5.460;2023-02-10T00:10:27;103289.88;;;0.36;100.00
58473;BME280;44775;51.564;5.460;2023-02-10T00:12:52;103283.84;;;0.32;100.00
58473;BME280;44775;51.564;5.460;2023-02-10T00:15:18;103290.19;;;0.23;100.00
58473;BME280;44775;51.564;5.460;2023-02-10T00:17:43;103302.56;;;0.20;100.00
58473;BME280;44775;51.564;5.460;2023-02-10T00:20:09;103301.84;;;0.15;100.00
58473;BME280;44775;51.564;5.460;2023-02-10T00:22:35;103302.84;;;0.11;100.00
58473;BME280;44775;51.564;5.460;2023-02-10T00:25:01;103296.97;;;0.01;100.00
58473;BME280;44775;51.564;5.460;2023-02-10T00:27:26;103301.38;;;-0.01;100.00
58473;BME280;44775;51.564;5.460;2023-02-10T00:29:52;103295.31;;;-0.03;100.00
58473;BME280;44775;51.564;5.460;2023-02-10T00:32:17;103288.38;;;-0.06;100.00
58473;BME280;44775;51.564;5.460;2023-02-10T00:34:46;103296.13;;;-0.01;100.00
58473;BME280;44775;51.564;5.460;2023-02-10T00:37:12;103298.97;;;-0.09;100.00
58473;BME280;44775;51.564;5.460;2023-02-10T00:39:38;103296.28;;;-0.07;100.00
58473;BME280;44775;51.564;5.460;2023-02-10T00:42:04;103303.44;;;-0.14;100.00
58473;BME280;44775;51.564;5.460;2023-02-10T00:44:29;103300.88;;;-0.15;100.00
58473;BME280;44775;51.564;5.460;2023-02-10T00:46:54;103296.59;;;-0.19;100.00
58473;BME280;44775;51.564;5.460;2023-02-10T00:49:20;103299.47;;;-0.29;100.00
58473;BME280;44775;51.564;5.460;2023-02-10T00:51:45;103297.91;;;-0.37;100.00
58473;BME280;44775;51.564;5.460;2023-02-10T00:54:11;103301.44;;;-0.37;100.00
58473;BME280;44775;51.564;5.460;2023-02-10T00:56:38;103297.97;;;-0.39;100.00
58473;BME280;44775;51.564;5.460;2023-02-10T00:59:04;103300.72;;;-0.43;100.00
58473;BME280;44775;51.564;5.460;2023-02-10T01:01:29;103308.53;;;-0.42;100.00
58473;BME280;44775;51.564;5.460;2023-02-10T01:03:55;103305.91;;;-0.42;100.00
58473;BME280;44775;51.564;5.460;2023-02-10T01:06:20;103300.59;;;-0.39;100.00
58473;BME280;44775;51.564;5.460;2023-02-10T01:08:46;103300.59;;;-0.39;100.00
58473;BME280;44775;51.564;5.460;2023-02-10T01:11:12;103299.75;;;-0.41;100.00
58473;BME280;44775;51.564;5.460;2023-02-10T01:13:38;103310.38;;;-0.45;100.00
58473;BME280;44775;51.564;5.460;2023-02-10T01:16:09;103318.38;;;-0.50;100.00
58473;BME280;44775;51.564;5.460;2023-02-10T01:18:37;103316.69;;;-0.54;100.00
58473;BME280;44775;51.564;5.460;2023-02-10T01:21:13;103314.06;;;-0.53;100.00
58473;BME280;44775;51.564;5.460;2023-02-10T01:23:38;103308.75;;;-0.51;100.00
58473;BME280;44775;51.564;5.460;2023-02-10T01:26:04;103315.91;;;-0.56;100.00
58473;BME280;44775;51.564;5.460;2023-02-10T01:28:30;103326.47;;;-0.59;100.00
58473;BME280;44775;51.564;5.460;2023-02-10T01:30:55;103326.59;;;-0.64;100.00
58473;BME280;44775;51.564;5.460;2023-02-10T01:33:20;103330.16;;;-0.68;100.00
58473;BME280;44775;51.564;5.460;2023-02-10T01:35:46;103339.94;;;-0.75;100.00
58473;BME280;44775;51.564;5.460;2023-02-10T01:38:11;103340.84;;;-0.76;100.00
58473;BME280;44775;51.564;5.460;2023-02-10T01:40:37;103344.38;;;-0.77;100.00
58473;BME280;44775;51.564;5.460;2023-02-10T01:43:04;103337.47;;;-0.81;100.00
58473;BME280;44775;51.564;5.460;2023-02-10T01:45:38;103339.88;;;-0.72;100.00
58473;BME280;44775;51.564;5.460;2023-02-10T01:48:04;103335.59;;;-0.76;100.00
58473;BME280;44775;51.564;5.460;2023-02-10T01:50:35;103340.84;;;-0.76;100.00
58473;BME280;44775;51.564;5.460;2023-02-10T01:53:04;103330.41;;;-0.79;100.00
58473;BME280;44775;51.564;5.460;2023-02-10T01:55:33;103312.81;;;-0.75;100.00
58473;BME280;44775;51.564;5.460;2023-02-10T01:57:59;103300.59;;;-0.76;100.00
58473;BME280;44775;51.564;5.460;2023-02-10T02:00:26;103307.56;;;-0.74;100.00
58473;BME280;44775;51.564;5.460;2023-02-10T02:02:52;103308.44;;;-0.75;100.00
58473;BME280;44775;51.564;5.460;2023-02-10T02:08:23;103299.69;;;-0.75;100.00
58473;BME280;44775;51.564;5.460;2023-02-10T02:16:05;103302.28;;;-0.74;100.00
58473;BME280;44775;51.564;5.460;2023-02-10T02:18:38;103305.72;;;-0.72;100.00
58473;BME280;44775;51.564;5.460;2023-02-10T02:34:42;103312.63;;;-0.66;100.00
58473;BME280;44775;51.564;5.460;2023-02-10T02:37:21;103317.81;;;-0.64;100.00
58473;BME280;44775;51.564;5.460;2023-02-10T02:39:50;103321.34;;;-0.64;100.00
58473;BME280;44775;51.564;5.460;2023-02-10T02:42:19;103320.44;;;-0.64;100.00
58473;BME280;44775;51.564;5.460;2023-02-10T02:44:48;103313.53;;;-0.68;100.00
58473;BME280;44775;51.564;5.460;2023-02-10T02:47:27;103325.69;;;-0.64;100.00
58473;BME280;44775;51.564;5.460;2023-02-10T02:55:52;103314.47;;;-0.71;100.00
58473;BME280;44775;51.564;5.460;2023-02-10T03:00:55;103314.66;;;-0.79;100.00
58473;BME280;44775;51.564;5.460;2023-02-10T03:03:22;103303.22;;;-0.76;100.00
58473;BME280;44775;51.564;5.460;2023-02-10T03:05:48;103311.13;;;-0.78;100.00
58473;BME280;44775;51.564;5.460;2023-02-10T03:08:13;103315.50;;;-0.77;100.00
58473;BME280;44775;51.564;5.460;2023-02-10T03:10:39;103310.31;;;-0.81;100.00
58473;BME280;44775;51.564;5.460;2023-02-10T03:13:04;103318.19;;;-0.80;100.00
58473;BME280;44775;51.564;5.460;2023-02-10T03:15:29;103321.59;;;-0.76;100.00
58473;BME280;44775;51.564;5.460;2023-02-10T03:17:56;103338.34;;;-0.80;100.00
58473;BME280;44775;51.564;5.460;2023-02-10T03:20:22;103339.13;;;-0.78;100.00
58473;BME280;44775;51.564;5.460;2023-02-10T03:22:47;103341.03;;;-0.85;100.00
58473;BME280;44775;51.564;5.460;2023-02-10T03:25:13;103342.88;;;-0.88;100.00
58473;BME280;44775;51.564;5.460;2023-02-10T03:27:38;103347.44;;;-0.97;100.00
58473;BME280;44775;51.564;5.460;2023-02-10T03:30:04;103349.22;;;-0.99;100.00
58473;BME280;44775;51.564;5.460;2023-02-10T03:32:29;103344.91;;;-1.01;100.00
58473;BME280;44775;51.564;5.460;2023-02-10T03:34:55;103350.91;;;-0.96;100.00
58473;BME280;44775;51.564;5.460;2023-02-10T03:37:20;103352.63;;;-0.93;100.00
58473;BME280;44775;51.564;5.460;2023-02-10T03:39:46;103349.03;;;-0.89;100.00
58473;BME280;44775;51.564;5.460;2023-02-10T03:42:12;103348.06;;;-0.85;100.00
58473;BME280;44775;51.564;5.460;2023-02-10T03:44:37;103347.19;;;-0.86;100.00
58473;BME280;44775;51.564;5.460;2023-02-10T03:47:03;103343.72;;;-0.88;100.00
58473;BME280;44775;51.564;5.460;2023-02-10T03:49:28;103332.72;;;-1.05;100.00
58473;BME280;44775;51.564;5.460;2023-02-10T03:51:54;103347.38;;;-0.95;100.00
58473;BME280;44775;51.564;5.460;2023-02-10T03:54:19;103349.13;;;-0.94;100.00
58473;BME280;44775;51.564;5.460;2023-02-10T03:56:44;103350.97;;;-0.99;100.00
58473;BME280;44775;51.564;5.460;2023-02-10T03:59:10;103350.06;;;-0.98;100.00
58473;BME280;44775;51.564;5.460;2023-02-10T04:01:35;103344.06;;;-1.03;100.00
58473;BME280;44775;51.564;5.460;2023-02-10T04:04:01;103341.44;;;-1.03;100.00
58473;BME280;44775;51.564;5.460;2023-02-10T04:06:27;103342.31;;;-1.03;100.00
58473;BME280;44775;51.564;5.460;2023-02-10T04:08:52;103344.19;;;-1.08;100.00
58473;BME280;44775;51.564;5.460;2023-02-10T04:11:18;103354.63;;;-1.06;100.00
58473;BME280;44775;51.564;5.460;2023-02-10T04:13:44;103350.31;;;-1.09;100.00
58473;BME280;44775;51.564;5.460;2023-02-10T04:16:12;103346.81;;;-1.09;100.00
58473;BME280;44775;51.564;5.460;2023-02-10T04:18:39;103351.25;;;-1.11;100.00
58473;BME280;44775;51.564;5.460;2023-02-10T04:21:06;103337.47;;;-1.23;100.00
58473;BME280;44775;51.564;5.460;2023-02-10T04:23:32;103353.03;;;-1.13;100.00
58473;BME280;44775;51.564;5.460;2023-02-10T04:25:58;103352.31;;;-1.22;100.00
58473;BME280;44775;51.564;5.460;2023-02-10T04:28:25;103352.91;;;-1.07;100.00
58473;BME280;44775;51.564;5.460;2023-02-10T04:30:55;103356.50;;;-1.13;100.00
58473;BME280;44775;51.564;5.460;2023-02-10T04:33:21;103351.31;;;-1.16;100.00
58473;BME280;44775;51.564;5.460;2023-02-10T04:35:47;103352.22;;;-1.17;100.00
58473;BME280;44775;51.564;5.460;2023-02-10T04:38:13;103348.66;;;-1.13;100.00
58473;BME280;44775;51.564;5.460;2023-02-10T04:40:39;103349.56;;;-1.15;100.00
58473;BME280;44775;51.564;5.460;2023-02-10T04:43:05;103347.91;;;-1.20;100.00
58473;BME280;44775;51.564;5.460;2023-02-10T04:45:30;103354.13;;;-1.25;100.00
58473;BME280;44775;51.564;5.460;2023-02-10T04:47:56;103354.94;;;-1.22;100.00
58473;BME280;44775;51.564;5.460;2023-02-10T04:50:21;103357.34;;;-1.11;100.00
58473;BME280;44775;51.564;5.460;2023-02-10T04:52:47;103349.44;;;-1.08;100.00
58473;BME280;44775;51.564;5.460;2023-02-10T04:55:12;103352.84;;;-1.04;100.00
58473;BME280;44775;51.564;5.460;2023-02-10T04:57:38;103361.47;;;-0.98;100.00
58473;BME280;44775;51.564;5.460;2023-02-10T05:00:04;103354.47;;;-0.99;100.00
58473;BME280;44775;51.564;5.460;2023-02-10T05:02:30;103355.31;;;-0.97;100.00
58473;BME280;44775;51.564;5.460;2023-02-10T05:04:55;103357.94;;;-0.98;100.00
58473;BME280;44775;51.564;5.460;2023-02-10T05:07:20;103362.22;;;-0.92;100.00
58473;BME280;44775;51.564;5.460;2023-02-10T05:09:46;103367.47;;;-0.92;100.00
58473;BME280;44775;51.564;5.460;2023-02-10T05:12:11;103373.56;;;-0.90;100.00
58473;BME280;44775;51.564;5.460;2023-02-10T05:14:37;103373.44;;;-0.86;100.00
58473;BME280;44775;51.564;5.460;2023-02-10T05:17:02;103376.88;;;-0.82;100.00
58473;BME280;44775;51.564;5.460;2023-02-10T05:19:28;103378.56;;;-0.80;100.00
58473;BME280;44775;51.564;5.460;2023-02-10T05:21:53;103381.06;;;-0.74;100.00
58473;BME280;44775;51.564;5.460;2023-02-10T05:24:19;103374.91;;;-0.73;100.00
58473;BME280;44775;51.564;5.460;2023-02-10T05:26:44;103372.09;;;-0.65;100.00
58473;BME280;44775;51.564;5.460;2023-02-10T05:29:09;103376.38;;;-0.59;100.00
58473;BME280;44775;51.564;5.460;2023-02-10T05:31:35;103369.22;;;-0.54;100.00
58473;BME280;44775;51.564;5.460;2023-02-10T05:34:00;103364.81;;;-0.51;100.00
58473;BME280;44775;51.564;5.460;2023-02-10T05:36:26;103357.72;;;-0.49;100.00
58473;BME280;44775;51.564;5.460;2023-02-10T05:38:51;103373.31;;;-0.41;100.00
58473;BME280;44775;51.564;5.460;2023-02-10T05:41:35;103367.19;;;-0.40;100.00
58473;BME280;44775;51.564;5.460;2023-02-10T05:44:00;103377.56;;;-0.35;100.00
58473;BME280;44775;51.564;5.460;2023-02-10T05:46:26;103383.59;;;-0.30;100.00
58473;BME280;44775;51.564;5.460;2023-02-10T05:48:51;103379.97;;;-0.26;100.00
58473;BME280;44775;51.564;5.460;2023-02-10T05:51:17;103381.69;;;-0.25;100.00
58473;BME280;44775;51.564;5.460;2023-02-10T05:53:42;103377.22;;;-0.21;100.00
58473;BME280;44775;51.564;5.460;2023-02-10T05:56:07;103373.69;;;-0.20;100.00
58473;BME280;44775;51.564;5.460;2023-02-10T05:58:33;103378.03;;;-0.18;100.00
58473;BME280;44775;51.564;5.460;2023-02-10T06:00:59;103378.81;;;-0.14;100.00
58473;BME280;44775;51.564;5.460;2023-02-10T06:03:25;103382.28;;;-0.12;100.00
58473;BME280;44775;51.564;5.460;2023-02-10T06:05:50;103376.97;;;-0.11;100.00
58473;BME280;44775;51.564;5.460;2023-02-10T06:08:16;103374.28;;;-0.08;100.00
58473;BME280;44775;51.564;5.460;2023-02-10T06:10:42;103385.56;;;-0.04;100.00
58473;BME280;44775;51.564;5.460;2023-02-10T06:13:07;103388.09;;;0.01;100.00
58473;BME280;44775;51.564;5.460;2023-02-10T06:15:33;103384.63;;;-0.02;100.00
58473;BME280;44775;51.564;5.460;2023-02-10T06:17:58;103382.00;;;0.00;100.00
58473;BME280;44775;51.564;5.460;2023-02-10T06:20:23;103374.06;;;0.02;100.00
58473;BME280;44775;51.564;5.460;2023-02-10T06:22:49;103385.47;;;0.01;100.00
58473;BME280;44775;51.564;5.460;2023-02-10T06:25:14;103382.72;;;0.05;100.00
58473;BME280;44775;51.564;5.460;2023-02-10T06:27:40;103374.91;;;0.02;100.00
58473;BME280;44775;51.564;5.460;2023-02-10T06:30:06;103373.13;;;0.04;100.00
58473;BME280;44775;51.564;5.460;2023-02-10T06:32:32;103373.06;;;0.06;100.00
58473;BME280;44775;51.564;5.460;2023-02-10T06:34:57;103383.59;;;0.06;100.00
58473;BME280;44775;51.564;5.460;2023-02-10T06:37:23;103384.41;;;0.08;100.00
58473;BME280;44775;51.564;5.460;2023-02-10T06:39:49;103377.16;;;0.17;100.00
58473;BME280;44775;51.564;5.460;2023-02-10T06:42:14;103380.66;;;0.18;100.00
58473;BME280;44775;51.564;5.460;2023-02-10T06:44:40;103377.19;;;0.16;100.00
58473;BME280;44775;51.564;5.460;2023-02-10T06:47:05;103381.50;;;0.18;100.00
58473;BME280;44775;51.564;5.460;2023-02-10T06:49:31;103383.22;;;0.19;100.00
58473;BME280;44775;51.564;5.460;2023-02-10T06:51:56;103385.56;;;0.30;100.00
58473;BME280;44775;51.564;5.460;2023-02-10T06:54:22;103385.72;;;0.26;100.00
58473;BME280;44775;51.564;5.460;2023-02-10T06:56:47;103379.53;;;0.27;100.00
58473;BME280;44775;51.564;5.460;2023-02-10T06:59:13;103384.78;;;0.28;100.00
58473;BME280;44775;51.564;5.460;2023-02-10T07:01:39;103389.97;;;0.30;100.00
58473;BME280;44775;51.564;5.460;2023-02-10T07:04:04;103387.34;;;0.30;100.00
58473;BME280;44775;51.564;5.460;2023-02-10T07:06:30;103404.66;;;0.38;100.00
58473;BME280;44775;51.564;5.460;2023-02-10T07:08:55;103403.81;;;0.38;100.00
58473;BME280;44775;51.564;5.460;2023-02-10T07:11:21;103419.31;;;0.49;100.00
58473;BME280;44775;51.564;5.460;2023-02-10T07:13:46;103426.28;;;0.50;100.00
58473;BME280;44775;51.564;5.460;2023-02-10T07:16:12;103427.66;;;0.64;100.00
58473;BME280;44775;51.564;5.460;2023-02-10T07:18:40;103408.56;;;0.58;100.00
58473;BME280;44775;51.564;5.460;2023-02-10T07:21:06;103414.63;;;0.60;100.00
58473;BME280;44775;51.564;5.460;2023-02-10T07:23:31;103418.88;;;0.64;100.00
58473;BME280;44775;51.564;5.460;2023-02-10T07:25:57;103421.44;;;0.67;100.00
58473;BME280;44775;51.564;5.460;2023-02-10T07:28:22;103426.59;;;0.72;100.00
58473;BME280;44775;51.564;5.460;2023-02-10T07:30:48;103421.34;;;0.72;100.00
58473;BME280;44775;51.564;5.460;2023-02-10T07:33:13;103417.78;;;0.73;100.00
58473;BME280;44775;51.564;5.460;2023-02-10T07:35:38;103420.28;;;0.77;100.00
58473;BME280;44775;51.564;5.460;2023-02-10T07:38:04;103414.06;;;0.81;100.00
58473;BME280;44775;51.564;5.460;2023-02-10T07:40:29;103418.34;;;0.84;100.00
58473;BME280;44775;51.564;5.460;2023-02-10T07:42:55;103427.06;;;0.86;100.00
58473;BME280;44775;51.564;5.460;2023-02-10T07:45:21;103423.53;;;0.87;100.00
58473;BME280;44775;51.564;5.460;2023-02-10T07:47:47;103427.69;;;0.96;100.00
58473;BME280;44775;51.564;5.460;2023-02-10T07:50:13;103423.13;;;1.02;100.00
58473;BME280;44775;51.564;5.460;2023-02-10T07:52:38;103429.16;;;1.06;100.00
58473;BME280;44775;51.564;5.460;2023-02-10T07:55:08;103407.34;;;1.01;100.00
58473;BME280;44775;51.564;5.460;2023-02-10T07:57:33;103420.16;;;1.13;100.00
58473;BME280;44775;51.564;5.460;2023-02-10T07:59:58;103423.50;;;1.18;100.00
58473;BME280;44775;51.564;5.460;2023-02-10T08:02:24;103429.59;;;1.22;100.00
58473;BME280;44775;51.564;5.460;2023-02-10T08:04:49;103434.72;;;1.26;100.00
58473;BME280;44775;51.564;5.460;2023-02-10T08:07:17;103442.53;;;1.29;100.00
58473;BME280;44775;51.564;5.460;2023-02-10T08:09:43;103434.63;;;1.29;100.00
58473;BME280;44775;51.564;5.460;2023-02-10T08:12:08;103439.75;;;1.34;100.00
58473;BME280;44775;51.564;5.460;2023-02-10T08:14:34;103438.88;;;1.33;100.00
58473;BME280;44775;51.564;5.460;2023-02-10T08:16:59;103456.22;;;1.40;100.00
58473;BME280;44775;51.564;5.460;2023-02-10T08:19:24;103452.50;;;1.48;100.00
58473;BME280;44775;51.564;5.460;2023-02-10T08:21:50;103451.66;;;1.47;100.00
58473;BME280;44775;51.564;5.460;2023-02-10T08:24:15;103446.38;;;1.47;100.00
58473;BME280;44775;51.564;5.460;2023-02-10T08:26:41;103445.34;;;1.53;100.00
58473;BME280;44775;51.564;5.460;2023-02-10T08:29:08;103449.69;;;1.54;100.00
58473;BME280;44775;51.564;5.460;2023-02-10T08:31:35;103447.88;;;1.56;100.00
58473;BME280;44775;51.564;5.460;2023-02-10T08:34:01;103459.06;;;1.64;100.00
58473;BME280;44775;51.564;5.460;2023-02-10T08:36:26;103458.28;;;1.60;100.00
58473;BME280;44775;51.564;5.460;2023-02-10T08:38:51;103471.97;;;1.72;100.00
58473;BME280;44775;51.564;5.460;2023-02-10T08:41:17;103476.50;;;1.68;100.00
58473;BME280;44775;51.564;5.460;2023-02-10T08:43:43;103472.22;;;1.64;100.00
58473;BME280;44775;51.564;5.460;2023-02-10T08:46:09;103475.53;;;1.71;100.00
58473;BME280;44775;51.564;5.460;2023-02-10T08:48:35;103469.25;;;1.75;100.00
58473;BME280;44775;51.564;5.460;2023-02-10T08:51:06;103458.72;;;1.75;100.00
58473;BME280;44775;51.564;5.460;2023-02-10T08:53:31;103456.16;;;1.72;100.00
58473;BME280;44775;51.564;5.460;2023-02-10T08:55:58;103454.22;;;1.78;100.00
58473;BME280;44775;51.564;5.460;2023-02-10T08:58:24;103455.88;;;1.81;100.00
58473;BME280;44775;51.564;5.460;2023-02-10T09:00:50;103451.56;;;1.78;100.00
58473;BME280;44775;51.564;5.460;2023-02-10T09:03:15;103456.84;;;1.78;100.00
58473;BME280;44775;51.564;5.460;2023-02-10T09:05:41;103462.03;;;1.81;100.00
58473;BME280;44775;51.564;5.460;2023-02-10T09:08:09;103458.28;;;1.88;100.00
58473;BME280;44775;51.564;5.460;2023-02-10T09:10:34;103452.81;;;1.95;100.00
58473;BME280;44775;51.564;5.460;2023-02-10T09:12:59;103462.25;;;2.02;100.00
58473;BME280;44775;51.564;5.460;2023-02-10T09:15:25;103462.41;;;1.97;100.00
58473;BME280;44775;51.564;5.460;2023-02-10T09:17:50;103464.91;;;2.02;100.00
58473;BME280;44775;51.564;5.460;2023-02-10T09:20:16;103457.53;;;2.13;100.00
58473;BME280;44775;51.564;5.460;2023-02-10T09:22:41;103446.22;;;2.09;100.00
58473;BME280;44775;51.564;5.460;2023-02-10T09:25:07;103457.09;;;2.25;100.00
58473;BME280;44775;51.564;5.460;2023-02-10T09:27:32;103455.38;;;2.24;100.00
58473;BME280;44775;51.564;5.460;2023-02-10T09:29:58;103460.84;;;2.45;100.00
58473;BME280;44775;51.564;5.460;2023-02-10T09:32:24;103469.63;;;2.45;100.00
58473;BME280;44775;51.564;5.460;2023-02-10T09:34:50;103457.06;;;2.53;100.00
58473;BME280;44775;51.564;5.460;2023-02-10T09:37:15;103475.47;;;2.80;100.00
58473;BME280;44775;51.564;5.460;2023-02-10T09:39:41;103474.63;;;2.79;100.00
58473;BME280;44775;51.564;5.460;2023-02-10T09:43:00;103467.88;;;2.96;100.00
58473;BME280;44775;51.564;5.460;2023-02-10T09:45:07;103471.28;;;2.99;100.00
58473;BME280;44775;51.564;5.460;2023-02-10T09:56:02;103461.59;;;3.92;100.00
58473;BME280;44775;51.564;5.460;2023-02-10T10:01:19;103463.00;;;4.23;100.00
58473;BME280;44775;51.564;5.460;2023-02-10T10:06:31;103476.59;;;4.36;100.00
58473;BME280;44775;51.564;5.460;2023-02-10T10:09:21;103473.25;;;4.31;100.00
58473;BME280;44775;51.564;5.460;2023-02-10T10:11:51;103478.19;;;4.81;100.00
58473;BME280;44775;51.564;5.460;2023-02-10T10:14:35;103481.03;;;5.36;100.00
58473;BME280;44775;51.564;5.460;2023-02-10T10:17:42;103493.59;;;5.89;100.00
58473;BME280;44775;51.564;5.460;2023-02-10T10:31:15;103483.19;;;6.39;100.00
58473;BME280;44775;51.564;5.460;2023-02-10T10:33:54;103475.38;;;6.54;100.00
58473;BME280;44775;51.564;5.460;2023-02-10T10:36:46;103474.97;;;6.44;100.00
58473;BME280;44775;51.564;5.460;2023-02-10T10:39:38;103479.94;;;6.52;100.00
58473;BME280;44775;51.564;5.460;2023-02-10T10:44:50;103481.78;;;6.50;100.00
58473;BME280;44775;51.564;5.460;2023-02-10T10:47:38;103481.22;;;6.78;100.00
58473;BME280;44775;51.564;5.460;2023-02-10T10:50:12;103468.88;;;6.77;100.00
58473;BME280;44775;51.564;5.460;2023-02-10T10:52:40;103477.06;;;7.07;100.00
58473;BME280;44775;51.564;5.460;2023-02-10T10:55:14;103469.75;;;7.44;100.00
58473;BME280;44775;51.564;5.460;2023-02-10T10:57:41;103462.03;;;7.55;100.00
58473;BME280;44775;51.564;5.460;2023-02-10T11:02:54;103452.94;;;7.59;100.00
58473;BME280;44775;51.564;5.460;2023-02-10T11:05:21;103457.16;;;7.79;100.00
58473;BME280;44775;51.564;5.460;2023-02-10T11:07:49;103447.69;;;8.05;100.00
58473;BME280;44775;51.564;5.460;2023-02-10T11:10:32;103454.53;;;8.09;100.00
58473;BME280;44775;51.564;5.460;2023-02-10T11:12:58;103446.16;;;8.31;100.00
58473;BME280;44775;51.564;5.460;2023-02-10T11:15:35;103455.25;;;8.43;99.86
58473;BME280;44775;51.564;5.460;2023-02-10T11:18:21;103449.00;;;8.44;99.02
58473;BME280;44775;51.564;5.460;2023-02-10T11:23:28;103444.28;;;8.63;97.03
58473;BME280;44775;51.564;5.460;2023-02-10T11:28:27;103440.03;;;8.75;94.90
58473;BME280;44775;51.564;5.460;2023-02-10T11:31:02;103449.66;;;8.92;95.77
58473;BME280;44775;51.564;5.460;2023-02-10T11:33:31;103458.19;;;8.68;95.54
58473;BME280;44775;51.564;5.460;2023-02-10T11:36:05;103450.19;;;8.54;96.86
58473;BME280;44775;51.564;5.460;2023-02-10T11:38:31;103449.56;;;8.49;98.16
58473;BME280;44775;51.564;5.460;2023-02-10T11:41:02;103447.59;;;8.67;98.65
58473;BME280;44775;51.564;5.460;2023-02-10T11:43:48;103449.56;;;8.49;99.66
58473;BME280;44775;51.564;5.460;2023-02-10T11:46:20;103447.28;;;8.43;98.71
58473;BME280;44775;51.564;5.460;2023-02-10T11:48:53;103446.63;;;8.54;97.15
58473;BME280;44775;51.564;5.460;2023-02-10T11:51:18;103439.59;;;8.52;95.35
58473;BME280;44775;51.564;5.460;2023-02-10T11:53:44;103441.25;;;8.69;95.92
58473;BME280;44775;51.564;5.460;2023-02-10T12:01:48;103434.03;;;8.86;95.25
58473;BME280;44775;51.564;5.460;2023-02-10T12:07:15;103420.69;;;9.00;95.02
58473;BME280;44775;51.564;5.460;2023-02-10T12:15:42;103401.06;;;9.15;94.50
58473;BME280;44775;51.564;5.460;2023-02-10T12:18:39;103406.94;;;9.76;91.90
58473;BME280;44775;51.564;5.460;2023-02-10T12:26:52;103405.56;;;10.10;86.76
58473;BME280;44775;51.564;5.460;2023-02-10T12:32:48;103413.25;;;10.42;87.31
58473;BME280;44775;51.564;5.460;2023-02-10T12:45:57;103397.84;;;11.46;83.52
58473;BME280;44775;51.564;5.460;2023-02-10T12:54:19;103378.97;;;11.24;73.88
58473;BME280;44775;51.564;5.460;2023-02-10T12:56:59;103372.50;;;10.51;74.98
58473;BME280;44775;51.564;5.460;2023-02-10T12:59:45;103382.34;;;10.51;78.25
58473;BME280;44775;51.564;5.460;2023-02-10T13:02:26;103385.03;;;10.63;75.74
58473;BME280;44775;51.564;5.460;2023-02-10T13:04:55;103385.78;;;10.66;74.91
58473;BME280;44775;51.564;5.460;2023-02-10T13:12:38;103370.38;;;10.04;76.37
58473;BME280;44775;51.564;5.460;2023-02-10T13:15:15;103370.00;;;10.23;77.04
58473;BME280;44775;51.564;5.460;2023-02-10T13:17:49;103371.78;;;10.36;76.20
58473;BME280;44775;51.564;5.460;2023-02-10T13:20:34;103362.53;;;10.28;75.83
58473;BME280;44775;51.564;5.460;2023-02-10T13:25:59;103349.31;;;10.26;75.67
58473;BME280;44775;51.564;5.460;2023-02-10T13:36:40;103336.69;;;10.41;72.08
58473;BME280;44775;51.564;5.460;2023-02-10T13:39:21;103349.31;;;10.26;72.06
58473;BME280;44775;51.564;5.460;2023-02-10T13:41:49;103341.84;;;10.04;73.62
58473;BME280;44775;51.564;5.460;2023-02-10T13:49:52;103333.91;;;10.43;74.16
58473;BME280;44775;51.564;5.460;2023-02-10T13:52:23;103330.47;;;10.66;69.91
58473;BME280;44775;51.564;5.460;2023-02-10T13:57:37;103331.13;;;10.57;70.57
58473;BME280;44775;51.564;5.460;2023-02-10T14:00:19;103321.41;;;10.43;69.96
58473;BME280;44775;51.564;5.460;2023-02-10T14:02:59;103320.44;;;10.31;72.38
58473;BME280;44775;51.564;5.460;2023-02-10T14:05:34;103319.75;;;10.15;72.47
58473;BME280;44775;51.564;5.460;2023-02-10T14:08:15;103324.28;;;10.27;73.52
58473;BME280;44775;51.564;5.460;2023-02-10T14:10:57;103321.94;;;10.48;74.70
58473;BME280;44775;51.564;5.460;2023-02-10T14:13:25;103313.13;;;10.72;73.55
58473;BME280;44775;51.564;5.460;2023-02-10T14:18:44;103315.69;;;10.86;72.32
58473;BME280;44775;51.564;5.460;2023-02-10T14:21:15;103317.00;;;10.80;72.05
58473;BME280;44775;51.564;5.460;2023-02-10T14:23:51;103312.91;;;10.75;72.27
58473;BME280;44775;51.564;5.460;2023-02-10T14:26:36;103317.41;;;10.10;74.64
58473;BME280;44775;51.564;5.460;2023-02-10T14:29:03;103314.41;;;9.62;76.64
58473;BME280;44775;51.564;5.460;2023-02-10T14:31:38;103316.66;;;9.41;78.71
58473;BME280;44775;51.564;5.460;2023-02-10T14:34:16;103309.16;;;9.34;78.65
58473;BME280;44775;51.564;5.460;2023-02-10T14:37:01;103314.75;;;9.43;79.89
58473;BME280;44775;51.564;5.460;2023-02-10T14:39:29;103315.72;;;9.42;80.83
58473;BME280;44775;51.564;5.460;2023-02-10T14:41:58;103310.63;;;9.25;81.58
58473;BME280;44775;51.564;5.460;2023-02-10T14:44:45;103311.88;;;9.19;81.72
58473;BME280;44775;51.564;5.460;2023-02-10T14:47:22;103322.66;;;9.04;82.66
58473;BME280;44775;51.564;5.460;2023-02-10T14:49:52;103318.59;;;8.84;84.08
58473;BME280;44775;51.564;5.460;2023-02-10T14:54:51;103330.25;;;8.68;84.58
58473;BME280;44775;51.564;5.460;2023-02-10T14:57:20;103322.22;;;8.40;87.29
58473;BME280;44775;51.564;5.460;2023-02-10T14:59:54;103335.28;;;8.44;87.28
58473;BME280;44775;51.564;5.460;2023-02-10T15:02:23;103328.94;;;8.17;88.88
58473;BME280;44775;51.564;5.460;2023-02-10T15:04:49;103322.94;;;8.27;88.61
58473;BME280;44775;51.564;5.460;2023-02-10T15:07:42;103320.66;;;8.36;89.19
58473;BME280;44775;51.564;5.460;2023-02-10T15:10:15;103318.91;;;8.06;91.21